Cap Aiguades — FMII — position and weather

sailwx.info

Track history (hours):
 
Tides and Currents Weather Stations Pressure Air Temp Water Temp Dewpoint Dewpoint Depression Visibility Wind Speed Wind Dir Waves Ship Positions

Cap Aiguades

Last reported at 2014-Jul-25 13:33 UTC. Time now 2014-Jul-25 13:44 UTC.
Position N 43°25' E 004°50'.

Length 89 m; draft 3 m.

Type: Ship. MMSI: 228237800.

Date/timePositionNaut miles runAvg speedWind from/ knotsBaromVisibWave heightAir tempDewpointWater temp
2014-Jul-25 13:33N 43°25' E 004°50'0 0.0
2014-Jul-25 12:27N 43°25' E 004°50'0 0.0
2014-Jul-25 11:32N 43°25' E 004°50'1 0.9
2014-Jul-25 10:33N 43°25' E 004°51'0 0.0
2014-Jul-25 09:33N 43°25' E 004°51'0 0.0
2014-Jul-25 08:33N 43°25' E 004°51'0 0.0
2014-Jul-25 07:33N 43°25' E 004°51'0 0.0
2014-Jul-25 06:33N 43°25' E 004°51'4 3.5
2014-Jul-25 05:32N 43°24' E 004°56'3 2.7
2014-Jul-25 04:33N 43°24' E 004°59'0 0.0
2014-Jul-25 03:33N 43°24' E 004°59'0 0.0
2014-Jul-25 02:33N 43°24' E 004°59'0 0.0
2014-Jul-25 01:33N 43°24' E 004°59'0 0.0
2014-Jul-25 00:33N 43°24' E 004°59'0 0.0
2014-Jul-24 23:34N 43°24' E 004°59'0 0.0
2014-Jul-24 22:33N 43°24' E 004°59'0 0.0
2014-Jul-24 21:33N 43°24' E 004°59'0 0.0
2014-Jul-24 20:33N 43°24' E 004°59'0 0.0
2014-Jul-24 19:33N 43°24' E 004°59'0 0.0
2014-Jul-24 18:33N 43°24' E 004°59'0 0.0
2014-Jul-24 17:33N 43°24' E 004°59'0 0.0
2014-Jul-24 16:33N 43°24' E 004°59'4 4.4
2014-Jul-24 15:33N 43°19' E 004°60'38 8.7
2014-Jul-24 11:08N 43°02' E 005°47'5 8.8
2014-Jul-24 10:33N 43°02' E 005°54'5 5.3
2014-Jul-24 09:31N 43°07' E 005°56'0 0.0
2014-Jul-24 03:25N 43°07' E 005°56'3 0.1
2014-Jul-23 05:33N 43°05' E 005°58'9 9.2
2014-Jul-23 04:33N 42°55' E 006°00'8 8.3
2014-Jul-23 03:33N 42°55' E 005°49'40 9.1
2014-Jul-22 23:06N 43°15' E 005°00'5 9.6
2014-Jul-22 22:33N 43°20' E 004°58'4 3.9
2014-Jul-22 21:33N 43°24' E 004°59'0 0.0
2014-Jul-22 20:33N 43°24' E 004°59'0 0.0
2014-Jul-22 19:33N 43°24' E 004°59'0 0.0
2014-Jul-22 18:33N 43°24' E 004°59'0 0.0
2014-Jul-22 17:33N 43°24' E 004°59'0 0.0
2014-Jul-22 16:33N 43°24' E 004°59'0 0.0
2014-Jul-22 15:33N 43°24' E 004°59'0 0.0
2014-Jul-22 14:33N 43°24' E 004°59'0 0.0
2014-Jul-22 13:33N 43°24' E 004°59'0 0.0
2014-Jul-22 12:33N 43°24' E 004°59'0 0.0
2014-Jul-22 11:33N 43°24' E 004°59'0 0.0
2014-Jul-22 10:33N 43°24' E 004°59'0 0.0
2014-Jul-22 09:33N 43°24' E 004°59'0 0.0
2014-Jul-22 08:33N 43°24' E 004°59'0 0.2
2014-Jul-22 07:33N 43°24' E 004°59'1 0.7
2014-Jul-22 06:33N 43°24' E 004°59'0 0.0
2014-Jul-22 05:33N 43°24' E 004°59'0 0.0
2014-Jul-22 04:33N 43°24' E 004°59'0 0.0
2014-Jul-22 03:33N 43°24' E 004°59'0 0.0
2014-Jul-22 02:33N 43°24' E 004°59'0 0.0
2014-Jul-22 01:33N 43°24' E 004°59'0 0.0
2014-Jul-22 00:33N 43°24' E 004°59'6 5.7
2014-Jul-21 23:33N 43°24' E 004°51'1 0.7
2014-Jul-21 22:33N 43°25' E 004°51'0 0.0
2014-Jul-21 21:30N 43°25' E 004°51'0 0.0
2014-Jul-21 20:33N 43°25' E 004°51'0 0.0
2014-Jul-21 20:10N 43°25' E 004°51'0 0.7
2014-Jul-21 19:33N 43°24' E 004°51'0 0.0
2014-Jul-21 18:33N 43°24' E 004°51'0 0.0
2014-Jul-21 17:33N 43°24' E 004°51'0 0.0
2014-Jul-21 16:33N 43°24' E 004°51'0 0.0
2014-Jul-21 15:33N 43°24' E 004°51'0 0.0
2014-Jul-21 14:33N 43°24' E 004°51'0 0.0
2014-Jul-21 13:33N 43°24' E 004°51'0 0.0
2014-Jul-21 12:33N 43°24' E 004°51'6 6.1
2014-Jul-21 11:33N 43°24' E 004°59'0 0.0
2014-Jul-21 10:33N 43°24' E 004°59'0 0.0
2014-Jul-21 09:33N 43°24' E 004°59'0 0.0
2014-Jul-21 08:33N 43°24' E 004°59'0 0.0
2014-Jul-21 07:33N 43°24' E 004°59'0 0.0
2014-Jul-21 06:33N 43°24' E 004°59'0 0.0
2014-Jul-21 05:33N 43°24' E 004°59'0 0.0
2014-Jul-21 04:33N 43°24' E 004°59'0 0.0
2014-Jul-21 03:33N 43°24' E 004°59'1 0.6
2014-Jul-21 02:33N 43°23' E 004°59'6 5.8
2014-Jul-21 01:33N 43°25' E 004°51'0 0.0
2014-Jul-21 00:33N 43°25' E 004°51'0 0.0
2014-Jul-20 23:33N 43°25' E 004°51'0 0.0
2014-Jul-20 22:33N 43°25' E 004°51'0 0.0
2014-Jul-20 21:32N 43°25' E 004°51'0 0.0
2014-Jul-20 20:14N 43°25' E 004°51'1 1.5
2014-Jul-20 19:32N 43°24' E 004°52'5 5.4
2014-Jul-20 18:34N 43°24' E 004°59'0 0.0
2014-Jul-20 17:33N 43°24' E 004°59'0 0.0
2014-Jul-20 16:33N 43°24' E 004°59'0 0.0
2014-Jul-20 15:33N 43°24' E 004°59'0 0.0
2014-Jul-20 14:33N 43°24' E 004°59'0 0.0
2014-Jul-20 13:33N 43°24' E 004°59'0 0.0
2014-Jul-20 12:33N 43°24' E 004°59'0 0.0
2014-Jul-20 11:33N 43°24' E 004°59'0 0.0
2014-Jul-20 10:33N 43°24' E 004°59'0 0.0
2014-Jul-20 09:33N 43°24' E 004°59'0 0.0
2014-Jul-20 08:33N 43°24' E 004°59'6 6.4
2014-Jul-20 07:33N 43°25' E 004°51'0 0.0
2014-Jul-20 06:32N 43°25' E 004°51'0 0.0
2014-Jul-20 05:33N 43°25' E 004°51'0 0.0
2014-Jul-20 04:33N 43°25' E 004°51'0 0.0
2014-Jul-20 03:33N 43°25' E 004°51'0 0.0
2014-Jul-20 02:33N 43°25' E 004°51'0 0.0
2014-Jul-20 01:33N 43°25' E 004°51'0 0.0
2014-Jul-20 00:33N 43°25' E 004°51'0 0.0
2014-Jul-19 23:31N 43°25' E 004°51'0 0.0
2014-Jul-19 22:33N 43°25' E 004°51'0 0.0
2014-Jul-19 21:30N 43°25' E 004°51'0 0.0
2014-Jul-19 20:33N 43°25' E 004°51'0 0.0
2014-Jul-19 19:33N 43°25' E 004°51'1 0.7
2014-Jul-19 18:33N 43°24' E 004°51'6 5.8
2014-Jul-19 17:33N 43°24' E 004°59'0 0.0
2014-Jul-19 16:33N 43°24' E 004°59'0 0.0
2014-Jul-19 15:33N 43°24' E 004°59'0 0.0
2014-Jul-19 14:33N 43°24' E 004°59'0 0.0
2014-Jul-19 13:33N 43°24' E 004°59'0 0.0
2014-Jul-19 12:33N 43°24' E 004°59'0 0.0
2014-Jul-19 11:33N 43°24' E 004°59'0 0.0
2014-Jul-19 10:33N 43°24' E 004°59'0 0.0
2014-Jul-19 09:33N 43°24' E 004°59'0 0.0
2014-Jul-19 08:33N 43°24' E 004°59'0 0.0
2014-Jul-19 07:33N 43°24' E 004°59'1 0.5
2014-Jul-19 06:33N 43°24' E 004°59'0 0.1
2014-Jul-19 05:33N 43°24' E 004°59'0 0.0
2014-Jul-19 04:33N 43°24' E 004°59'0 0.0
2014-Jul-19 03:33N 43°24' E 004°59'0 0.0
2014-Jul-19 02:33N 43°24' E 004°59'0 0.0
2014-Jul-19 01:33N 43°24' E 004°59'0 0.0
2014-Jul-19 00:33N 43°24' E 004°59'0 0.0
2014-Jul-18 23:33N 43°24' E 004°59'0 0.0
2014-Jul-18 22:33N 43°24' E 004°59'0 0.0
2014-Jul-18 21:33N 43°24' E 004°59'0 0.0
2014-Jul-18 20:33N 43°24' E 004°59'0 0.0
2014-Jul-18 19:33N 43°24' E 004°59'0 0.0
2014-Jul-18 18:33N 43°24' E 004°59'0 0.0
2014-Jul-18 17:34N 43°24' E 004°59'0 0.0
2014-Jul-18 16:33N 43°24' E 004°59'0 0.0
2014-Jul-18 15:33N 43°24' E 004°59'0 0.0
2014-Jul-18 14:33N 43°24' E 004°59'0 0.0
2014-Jul-18 13:33N 43°24' E 004°59'0 0.0
2014-Jul-18 12:33N 43°24' E 004°59'0 0.0
2014-Jul-18 11:33N 43°24' E 004°59'0 0.0
2014-Jul-18 10:34N 43°24' E 004°59'0 0.0
2014-Jul-18 09:33N 43°24' E 004°59'0 0.0
2014-Jul-18 08:33N 43°24' E 004°59'0 0.0
2014-Jul-18 07:33N 43°24' E 004°59'0 0.0
2014-Jul-18 06:33N 43°24' E 004°59'0 0.0
2014-Jul-18 05:34N 43°24' E 004°59'0 0.0
2014-Jul-18 04:33N 43°24' E 004°59'0 0.0
2014-Jul-18 03:33N 43°24' E 004°59'0 0.0
2014-Jul-18 02:33N 43°24' E 004°59'0 0.0
2014-Jul-18 01:33N 43°24' E 004°59'0 0.0
2014-Jul-18 00:33N 43°24' E 004°59'0 0.0
2014-Jul-17 23:34N 43°24' E 004°59'0 0.0
2014-Jul-17 22:33N 43°24' E 004°59'0 0.0
2014-Jul-17 21:33N 43°24' E 004°59'0 0.0
2014-Jul-17 20:33N 43°24' E 004°59'0 0.0
2014-Jul-17 19:33N 43°24' E 004°59'0 0.0
2014-Jul-17 18:33N 43°24' E 004°59'0 0.0
2014-Jul-17 17:34N 43°24' E 004°59'0 0.0
2014-Jul-17 16:33N 43°24' E 004°59'0 0.0
2014-Jul-17 15:33N 43°24' E 004°59'4 3.6
2014-Jul-17 14:33N 43°21' E 004°59'1210.9
2014-Jul-17 13:30N 43°11' E 005°07'3512.0
2014-Jul-17 10:33N 43°01' E 005°54'6 0.8
2014-Jul-17 03:32N 43°07' E 005°55'1 0.1
2014-Jul-16 18:22N 43°07' E 005°54'3 0.2
2014-Jul-16 06:33N 43°05' E 005°58'10 9.9
2014-Jul-16 05:33N 42°56' E 005°60'9 9.4
2014-Jul-16 04:33N 42°56' E 005°47'4210.5
2014-Jul-16 00:33N 43°19' E 004°59'5 4.8
2014-Jul-15 23:33N 43°24' E 004°59'0 0.0
2014-Jul-15 22:33N 43°24' E 004°59'0 0.0
2014-Jul-15 21:33N 43°24' E 004°59'0 0.0
2014-Jul-15 20:33N 43°24' E 004°59'0 0.0
2014-Jul-15 19:33N 43°24' E 004°59'0 0.0
2014-Jul-15 18:33N 43°24' E 004°59'0 0.0
2014-Jul-15 17:33N 43°24' E 004°59'4 3.7
2014-Jul-15 16:33N 43°24' E 004°54'3 2.7
2014-Jul-15 15:22N 43°25' E 004°50'0 0.0
2014-Jul-15 14:28N 43°25' E 004°50'  
Track history (hours):
 
Tides and Currents Weather Stations Pressure Air Temp Water Temp Dewpoint Dewpoint Depression Visibility Wind Speed Wind Dir Waves Ship Positions

Cap Aiguades

Last reported at 2014-Jul-25 13:33 UTC. Time now 2014-Jul-25 13:44 UTC.
Position N 43°25' E 004°50'.

Length 89 m; draft 3 m.

Type: Ship. MMSI: 228237800.

Date/timePositionNaut miles runAvg speedWind from/ knotsBaromVisibWave heightAir tempDewpointWater temp
2014-Jul-25 13:33N 43°25' E 004°50'0 0.0
2014-Jul-25 12:27N 43°25' E 004°50'0 0.0
2014-Jul-25 11:32N 43°25' E 004°50'1 0.9
2014-Jul-25 10:33N 43°25' E 004°51'0 0.0
2014-Jul-25 09:33N 43°25' E 004°51'0 0.0
2014-Jul-25 08:33N 43°25' E 004°51'0 0.0
2014-Jul-25 07:33N 43°25' E 004°51'0 0.0
2014-Jul-25 06:33N 43°25' E 004°51'4 3.5
2014-Jul-25 05:32N 43°24' E 004°56'3 2.7
2014-Jul-25 04:33N 43°24' E 004°59'0 0.0
2014-Jul-25 03:33N 43°24' E 004°59'0 0.0
2014-Jul-25 02:33N 43°24' E 004°59'0 0.0
2014-Jul-25 01:33N 43°24' E 004°59'0 0.0
2014-Jul-25 00:33N 43°24' E 004°59'0 0.0
2014-Jul-24 23:34N 43°24' E 004°59'0 0.0
2014-Jul-24 22:33N 43°24' E 004°59'0 0.0
2014-Jul-24 21:33N 43°24' E 004°59'0 0.0
2014-Jul-24 20:33N 43°24' E 004°59'0 0.0
2014-Jul-24 19:33N 43°24' E 004°59'0 0.0
2014-Jul-24 18:33N 43°24' E 004°59'0 0.0
2014-Jul-24 17:33N 43°24' E 004°59'0 0.0
2014-Jul-24 16:33N 43°24' E 004°59'4 4.4
2014-Jul-24 15:33N 43°19' E 004°60'38 8.7
2014-Jul-24 11:08N 43°02' E 005°47'5 8.8
2014-Jul-24 10:33N 43°02' E 005°54'5 5.3
2014-Jul-24 09:31N 43°07' E 005°56'0 0.0
2014-Jul-24 03:25N 43°07' E 005°56'3 0.1
2014-Jul-23 05:33N 43°05' E 005°58'9 9.2
2014-Jul-23 04:33N 42°55' E 006°00'8 8.3
2014-Jul-23 03:33N 42°55' E 005°49'40 9.1
2014-Jul-22 23:06N 43°15' E 005°00'5 9.6
2014-Jul-22 22:33N 43°20' E 004°58'4 3.9
2014-Jul-22 21:33N 43°24' E 004°59'0 0.0
2014-Jul-22 20:33N 43°24' E 004°59'0 0.0
2014-Jul-22 19:33N 43°24' E 004°59'0 0.0
2014-Jul-22 18:33N 43°24' E 004°59'0 0.0
2014-Jul-22 17:33N 43°24' E 004°59'0 0.0
2014-Jul-22 16:33N 43°24' E 004°59'0 0.0
2014-Jul-22 15:33N 43°24' E 004°59'0 0.0
2014-Jul-22 14:33N 43°24' E 004°59'0 0.0
2014-Jul-22 13:33N 43°24' E 004°59'0 0.0
2014-Jul-22 12:33N 43°24' E 004°59'0 0.0
2014-Jul-22 11:33N 43°24' E 004°59'0 0.0
2014-Jul-22 10:33N 43°24' E 004°59'0 0.0
2014-Jul-22 09:33N 43°24' E 004°59'0 0.0
2014-Jul-22 08:33N 43°24' E 004°59'0 0.2
2014-Jul-22 07:33N 43°24' E 004°59'1 0.7
2014-Jul-22 06:33N 43°24' E 004°59'0 0.0
2014-Jul-22 05:33N 43°24' E 004°59'0 0.0
2014-Jul-22 04:33N 43°24' E 004°59'0 0.0
2014-Jul-22 03:33N 43°24' E 004°59'0 0.0
2014-Jul-22 02:33N 43°24' E 004°59'0 0.0
2014-Jul-22 01:33N 43°24' E 004°59'0 0.0
2014-Jul-22 00:33N 43°24' E 004°59'6 5.7
2014-Jul-21 23:33N 43°24' E 004°51'1 0.7
2014-Jul-21 22:33N 43°25' E 004°51'0 0.0
2014-Jul-21 21:30N 43°25' E 004°51'0 0.0
2014-Jul-21 20:33N 43°25' E 004°51'0 0.0
2014-Jul-21 20:10N 43°25' E 004°51'0 0.7
2014-Jul-21 19:33N 43°24' E 004°51'0 0.0
2014-Jul-21 18:33N 43°24' E 004°51'0 0.0
2014-Jul-21 17:33N 43°24' E 004°51'0 0.0
2014-Jul-21 16:33N 43°24' E 004°51'0 0.0
2014-Jul-21 15:33N 43°24' E 004°51'0 0.0
2014-Jul-21 14:33N 43°24' E 004°51'0 0.0
2014-Jul-21 13:33N 43°24' E 004°51'0 0.0
2014-Jul-21 12:33N 43°24' E 004°51'6 6.1
2014-Jul-21 11:33N 43°24' E 004°59'0 0.0
2014-Jul-21 10:33N 43°24' E 004°59'0 0.0
2014-Jul-21 09:33N 43°24' E 004°59'0 0.0
2014-Jul-21 08:33N 43°24' E 004°59'0 0.0
2014-Jul-21 07:33N 43°24' E 004°59'0 0.0
2014-Jul-21 06:33N 43°24' E 004°59'0 0.0
2014-Jul-21 05:33N 43°24' E 004°59'0 0.0
2014-Jul-21 04:33N 43°24' E 004°59'0 0.0
2014-Jul-21 03:33N 43°24' E 004°59'1 0.6
2014-Jul-21 02:33N 43°23' E 004°59'6 5.8
2014-Jul-21 01:33N 43°25' E 004°51'0 0.0
2014-Jul-21 00:33N 43°25' E 004°51'0 0.0
2014-Jul-20 23:33N 43°25' E 004°51'0 0.0
2014-Jul-20 22:33N 43°25' E 004°51'0 0.0
2014-Jul-20 21:32N 43°25' E 004°51'0 0.0
2014-Jul-20 20:14N 43°25' E 004°51'1 1.5
2014-Jul-20 19:32N 43°24' E 004°52'5 5.4
2014-Jul-20 18:34N 43°24' E 004°59'0 0.0
2014-Jul-20 17:33N 43°24' E 004°59'0 0.0
2014-Jul-20 16:33N 43°24' E 004°59'0 0.0
2014-Jul-20 15:33N 43°24' E 004°59'0 0.0
2014-Jul-20 14:33N 43°24' E 004°59'0 0.0
2014-Jul-20 13:33N 43°24' E 004°59'0 0.0
2014-Jul-20 12:33N 43°24' E 004°59'0 0.0
2014-Jul-20 11:33N 43°24' E 004°59'0 0.0
2014-Jul-20 10:33N 43°24' E 004°59'0 0.0
2014-Jul-20 09:33N 43°24' E 004°59'0 0.0
2014-Jul-20 08:33N 43°24' E 004°59'6 6.4
2014-Jul-20 07:33N 43°25' E 004°51'0 0.0
2014-Jul-20 06:32N 43°25' E 004°51'0 0.0
2014-Jul-20 05:33N 43°25' E 004°51'0 0.0
2014-Jul-20 04:33N 43°25' E 004°51'0 0.0
2014-Jul-20 03:33N 43°25' E 004°51'0 0.0
2014-Jul-20 02:33N 43°25' E 004°51'0 0.0
2014-Jul-20 01:33N 43°25' E 004°51'0 0.0
2014-Jul-20 00:33N 43°25' E 004°51'0 0.0
2014-Jul-19 23:31N 43°25' E 004°51'0 0.0
2014-Jul-19 22:33N 43°25' E 004°51'0 0.0
2014-Jul-19 21:30N 43°25' E 004°51'0 0.0
2014-Jul-19 20:33N 43°25' E 004°51'0 0.0
2014-Jul-19 19:33N 43°25' E 004°51'1 0.7
2014-Jul-19 18:33N 43°24' E 004°51'6 5.8
2014-Jul-19 17:33N 43°24' E 004°59'0 0.0
2014-Jul-19 16:33N 43°24' E 004°59'0 0.0
2014-Jul-19 15:33N 43°24' E 004°59'0 0.0
2014-Jul-19 14:33N 43°24' E 004°59'0 0.0
2014-Jul-19 13:33N 43°24' E 004°59'0 0.0
2014-Jul-19 12:33N 43°24' E 004°59'0 0.0
2014-Jul-19 11:33N 43°24' E 004°59'0 0.0
2014-Jul-19 10:33N 43°24' E 004°59'0 0.0
2014-Jul-19 09:33N 43°24' E 004°59'0 0.0
2014-Jul-19 08:33N 43°24' E 004°59'0 0.0
2014-Jul-19 07:33N 43°24' E 004°59'1 0.5
2014-Jul-19 06:33N 43°24' E 004°59'0 0.1
2014-Jul-19 05:33N 43°24' E 004°59'0 0.0
2014-Jul-19 04:33N 43°24' E 004°59'0 0.0
2014-Jul-19 03:33N 43°24' E 004°59'0 0.0
2014-Jul-19 02:33N 43°24' E 004°59'0 0.0
2014-Jul-19 01:33N 43°24' E 004°59'0 0.0
2014-Jul-19 00:33N 43°24' E 004°59'0 0.0
2014-Jul-18 23:33N 43°24' E 004°59'0 0.0
2014-Jul-18 22:33N 43°24' E 004°59'0 0.0
2014-Jul-18 21:33N 43°24' E 004°59'0 0.0
2014-Jul-18 20:33N 43°24' E 004°59'0 0.0
2014-Jul-18 19:33N 43°24' E 004°59'0 0.0
2014-Jul-18 18:33N 43°24' E 004°59'0 0.0
2014-Jul-18 17:34N 43°24' E 004°59'0 0.0
2014-Jul-18 16:33N 43°24' E 004°59'0 0.0
2014-Jul-18 15:33N 43°24' E 004°59'0 0.0
2014-Jul-18 14:33N 43°24' E 004°59'0 0.0
2014-Jul-18 13:33N 43°24' E 004°59'0 0.0
2014-Jul-18 12:33N 43°24' E 004°59'0 0.0
2014-Jul-18 11:33N 43°24' E 004°59'0 0.0
2014-Jul-18 10:34N 43°24' E 004°59'0 0.0
2014-Jul-18 09:33N 43°24' E 004°59'0 0.0
2014-Jul-18 08:33N 43°24' E 004°59'0 0.0
2014-Jul-18 07:33N 43°24' E 004°59'0 0.0
2014-Jul-18 06:33N 43°24' E 004°59'0 0.0
2014-Jul-18 05:34N 43°24' E 004°59'0 0.0
2014-Jul-18 04:33N 43°24' E 004°59'0 0.0
2014-Jul-18 03:33N 43°24' E 004°59'0 0.0
2014-Jul-18 02:33N 43°24' E 004°59'0 0.0
2014-Jul-18 01:33N 43°24' E 004°59'0 0.0
2014-Jul-18 00:33N 43°24' E 004°59'0 0.0
2014-Jul-17 23:34N 43°24' E 004°59'0 0.0
2014-Jul-17 22:33N 43°24' E 004°59'0 0.0
2014-Jul-17 21:33N 43°24' E 004°59'0 0.0
2014-Jul-17 20:33N 43°24' E 004°59'0 0.0
2014-Jul-17 19:33N 43°24' E 004°59'0 0.0
2014-Jul-17 18:33N 43°24' E 004°59'0 0.0
2014-Jul-17 17:34N 43°24' E 004°59'0 0.0
2014-Jul-17 16:33N 43°24' E 004°59'0 0.0
2014-Jul-17 15:33N 43°24' E 004°59'4 3.6
2014-Jul-17 14:33N 43°21' E 004°59'1210.9
2014-Jul-17 13:30N 43°11' E 005°07'3512.0
2014-Jul-17 10:33N 43°01' E 005°54'6 0.8
2014-Jul-17 03:32N 43°07' E 005°55'1 0.1
2014-Jul-16 18:22N 43°07' E 005°54'3 0.2
2014-Jul-16 06:33N 43°05' E 005°58'10 9.9
2014-Jul-16 05:33N 42°56' E 005°60'9 9.4
2014-Jul-16 04:33N 42°56' E 005°47'4210.5
2014-Jul-16 00:33N 43°19' E 004°59'5 4.8
2014-Jul-15 23:33N 43°24' E 004°59'0 0.0
2014-Jul-15 22:33N 43°24' E 004°59'0 0.0
2014-Jul-15 21:33N 43°24' E 004°59'0 0.0
2014-Jul-15 20:33N 43°24' E 004°59'0 0.0
2014-Jul-15 19:33N 43°24' E 004°59'0 0.0
2014-Jul-15 18:33N 43°24' E 004°59'0 0.0
2014-Jul-15 17:33N 43°24' E 004°59'4 3.7
2014-Jul-15 16:33N 43°24' E 004°54'3 2.7
2014-Jul-15 15:22N 43°25' E 004°50'0 0.0
2014-Jul-15 14:28N 43°25' E 004°50'  

Dump ship's entire track history